OCN612 SABE-SACO
Flight info
| Callsign | OCN612 |
|---|---|
| Flight time | 1h 48m |
| Altitude | 34000 |
| Route | ATOVO4B ATOVO UW5 ASISA ASISA1Q |
| Aircraft | A320/M-SDE3FGHIRWY/LB1 |
Departure
| Time | 2026-05-03 21:03 |
|---|---|
| Airport | Aeroparque Jorge Newbery (SABE) |
Arrival
| Time | 2026-05-03 22:52 |
|---|---|
| Airport | Ingeniero Aeronáutico Ambrosio L.V. Taravella International Airport (SACO) |
| Time | Latitude | Longitude | Altitude | Speed | Heading |
|---|---|---|---|---|---|
| 2026-05-03 20:22 | -34.55762 | -58.41321 | 26 ft | 0 kts | 32° |
| 2026-05-03 20:25 | -34.55762 | -58.41322 | 23 ft | 0 kts | 32° |
| 2026-05-03 20:47 | -34.55775 | -58.41331 | 23 ft | 4 kts | 21° |
| 2026-05-03 20:47 | -34.55800 | -58.41336 | 26 ft | 4 kts | 338° |
| 2026-05-03 20:48 | -34.55812 | -58.41325 | 24 ft | 0 kts | 303° |
| 2026-05-03 20:49 | -34.55799 | -58.41349 | 25 ft | 5 kts | 303° |
| 2026-05-03 20:50 | -34.55782 | -58.41383 | 23 ft | 4 kts | 300° |
| 2026-05-03 20:50 | -34.55752 | -58.41442 | 24 ft | 16 kts | 301° |
| 2026-05-03 20:50 | -34.55745 | -58.41561 | 24 ft | 15 kts | 204° |
| 2026-05-03 20:50 | -34.55825 | -58.41526 | 24 ft | 13 kts | 121° |
| 2026-05-03 20:51 | -34.55881 | -58.41393 | 25 ft | 23 kts | 117° |
| 2026-05-03 20:51 | -34.55949 | -58.41248 | 23 ft | 20 kts | 124° |
| 2026-05-03 20:51 | -34.55990 | -58.41181 | 24 ft | 8 kts | 127° |
| 2026-05-03 20:51 | -34.56021 | -58.41134 | 24 ft | 7 kts | 129° |
| 2026-05-03 20:52 | -34.56048 | -58.41094 | 23 ft | 6 kts | 128° |
| 2026-05-03 20:52 | -34.56082 | -58.41041 | 23 ft | 14 kts | 127° |
| 2026-05-03 20:52 | -34.56120 | -58.40978 | 24 ft | 9 kts | 125° |
| 2026-05-03 20:52 | -34.56134 | -58.40952 | 24 ft | 0 kts | 122° |
| 2026-05-03 20:53 | -34.56146 | -58.40928 | 24 ft | 5 kts | 122° |
| 2026-05-03 20:53 | -34.56163 | -58.40892 | 23 ft | 5 kts | 116° |
| 2026-05-03 20:53 | -34.56168 | -58.40857 | 25 ft | 4 kts | 92° |
| 2026-05-03 20:53 | -34.56186 | -58.40797 | 24 ft | 17 kts | 120° |
| 2026-05-03 20:54 | -34.56256 | -58.40668 | 25 ft | 18 kts | 124° |
| 2026-05-03 20:54 | -34.56291 | -58.40607 | 23 ft | 0 kts | 126° |
| 2026-05-03 20:54 | -34.56299 | -58.40593 | 25 ft | 3 kts | 126° |
| 2026-05-03 20:55 | -34.56312 | -58.40573 | 23 ft | 3 kts | 130° |
| 2026-05-03 20:55 | -34.56323 | -58.40560 | 23 ft | 0 kts | 137° |
| 2026-05-03 20:56 | -34.56340 | -58.40541 | 23 ft | 4 kts | 137° |
| 2026-05-03 20:56 | -34.56358 | -58.40521 | 23 ft | 4 kts | 137° |
| 2026-05-03 20:56 | -34.56372 | -58.40506 | 23 ft | 0 kts | 137° |
| 2026-05-03 20:59 | -34.56392 | -58.40484 | 24 ft | 6 kts | 137° |
| 2026-05-03 21:00 | -34.56400 | -58.40475 | 23 ft | 0 kts | 138° |
| 2026-05-03 21:01 | -34.56420 | -58.40453 | 24 ft | 18 kts | 138° |
| 2026-05-03 21:01 | -34.56526 | -58.40387 | 23 ft | 15 kts | 207° |
| 2026-05-03 21:01 | -34.56527 | -58.40493 | 23 ft | 14 kts | 298° |
| 2026-05-03 21:01 | -34.56514 | -58.40519 | 23 ft | 0 kts | 302° |
| 2026-05-03 21:03 | -34.56435 | -58.40660 | 23 ft | 57 kts | 304° |
| 2026-05-03 21:03 | -34.56074 | -58.41293 | 23 ft | 122 kts | 304° |
| 2026-05-03 21:03 | -34.55588 | -58.42178 | 172 ft | 152 kts | 305° |
| 2026-05-03 21:03 | -34.55022 | -58.43238 | 894 ft | 147 kts | 307° |
| 2026-05-03 21:04 | -34.54366 | -58.44218 | 1448 ft | 159 kts | 321° |
| 2026-05-03 21:04 | -34.53414 | -58.45055 | 1814 ft | 179 kts | 333° |
| 2026-05-03 21:04 | -34.52346 | -58.45574 | 2102 ft | 199 kts | 346° |
| 2026-05-03 21:04 | -34.50886 | -58.45750 | 2533 ft | 226 kts | 2° |
| 2026-05-03 21:05 | -34.49285 | -58.45280 | 3160 ft | 247 kts | 21° |
| 2026-05-03 21:05 | -34.47760 | -58.44203 | 3986 ft | 258 kts | 28° |
| 2026-05-03 21:05 | -34.46466 | -58.43232 | 4737 ft | 263 kts | 28° |
| 2026-05-03 21:05 | -34.44885 | -58.42049 | 5606 ft | 270 kts | 28° |
| 2026-05-03 21:06 | -34.43274 | -58.40846 | 6480 ft | 276 kts | 27° |
| 2026-05-03 21:06 | -34.41621 | -58.39612 | 7311 ft | 281 kts | 27° |
| 2026-05-03 21:06 | -34.39942 | -58.38365 | 8149 ft | 285 kts | 25° |
| 2026-05-03 21:06 | -34.38120 | -58.37535 | 8963 ft | 283 kts | 5° |
| 2026-05-03 21:07 | -34.36205 | -58.37502 | 9801 ft | 279 kts | 345° |
| 2026-05-03 21:07 | -34.34836 | -58.37986 | 10371 ft | 277 kts | 332° |
| 2026-05-03 21:07 | -34.33191 | -58.39168 | 10718 ft | 294 kts | 322° |
| 2026-05-03 21:07 | -34.31449 | -58.40630 | 11117 ft | 312 kts | 322° |
| 2026-05-03 21:08 | -34.29649 | -58.42145 | 11788 ft | 319 kts | 321° |
| 2026-05-03 21:08 | -34.28553 | -58.43064 | 12226 ft | 322 kts | 321° |
| 2026-05-03 21:08 | -34.26048 | -58.45150 | 13193 ft | 329 kts | 322° |
| 2026-05-03 21:08 | -34.24785 | -58.46196 | 13660 ft | 333 kts | 322° |
| 2026-05-03 21:09 | -34.23172 | -58.47530 | 14227 ft | 337 kts | 321° |
| 2026-05-03 21:09 | -34.21248 | -58.49120 | 14849 ft | 341 kts | 321° |
| 2026-05-03 21:09 | -34.19527 | -58.50541 | 15415 ft | 344 kts | 321° |
| 2026-05-03 21:09 | -34.17543 | -58.52177 | 16065 ft | 348 kts | 321° |
| 2026-05-03 21:10 | -34.15550 | -58.53861 | 16707 ft | 350 kts | 316° |
| 2026-05-03 21:10 | -34.13844 | -58.55925 | 17335 ft | 347 kts | 303° |
| 2026-05-03 21:10 | -34.12932 | -58.57594 | 17781 ft | 345 kts | 294° |
| 2026-05-03 21:10 | -34.12082 | -58.60077 | 18383 ft | 344 kts | 283° |
| 2026-05-03 21:11 | -34.11669 | -58.62836 | 18923 ft | 344 kts | 274° |
| 2026-05-03 21:11 | -34.11381 | -58.65714 | 19470 ft | 347 kts | 275° |
| 2026-05-03 21:11 | -34.11082 | -58.68616 | 20019 ft | 350 kts | 275° |
| 2026-05-03 21:11 | -34.10773 | -58.71556 | 20572 ft | 353 kts | 275° |
| 2026-05-03 21:12 | -34.10554 | -58.73622 | 20957 ft | 355 kts | 275° |
| 2026-05-03 21:12 | -34.10238 | -58.76584 | 21506 ft | 357 kts | 275° |
| 2026-05-03 21:12 | -34.09919 | -58.79566 | 22044 ft | 360 kts | 275° |
| 2026-05-03 21:12 | -34.09598 | -58.82575 | 22569 ft | 362 kts | 275° |
| 2026-05-03 21:13 | -34.09277 | -58.85581 | 23097 ft | 365 kts | 275° |
| 2026-05-03 21:13 | -34.08955 | -58.88596 | 23611 ft | 368 kts | 275° |
| 2026-05-03 21:13 | -34.08628 | -58.91662 | 24036 ft | 370 kts | 274° |
| 2026-05-03 21:13 | -34.08295 | -58.94790 | 24473 ft | 372 kts | 274° |
| 2026-05-03 21:14 | -34.08001 | -58.97557 | 24854 ft | 374 kts | 274° |
| 2026-05-03 21:14 | -34.07669 | -59.00674 | 25282 ft | 376 kts | 274° |
| 2026-05-03 21:14 | -34.07390 | -59.03269 | 25634 ft | 377 kts | 274° |
| 2026-05-03 21:14 | -34.07235 | -59.04719 | 25828 ft | 378 kts | 274° |
| 2026-05-03 21:15 | -34.06899 | -59.07868 | 26255 ft | 379 kts | 274° |
| 2026-05-03 21:15 | -34.06546 | -59.11028 | 26667 ft | 382 kts | 276° |
| 2026-05-03 21:15 | -34.05865 | -59.14051 | 27050 ft | 389 kts | 286° |
| 2026-05-03 21:15 | -34.04647 | -59.16993 | 27432 ft | 398 kts | 297° |
| 2026-05-03 21:16 | -34.02938 | -59.19676 | 27784 ft | 406 kts | 304° |
| 2026-05-03 21:16 | -34.01113 | -59.22291 | 28153 ft | 409 kts | 304° |
| 2026-05-03 21:16 | -33.99274 | -59.24928 | 28525 ft | 411 kts | 303° |
| 2026-05-03 21:16 | -33.97455 | -59.27543 | 28877 ft | 414 kts | 303° |
| 2026-05-03 21:17 | -33.95583 | -59.30236 | 29248 ft | 416 kts | 303° |
| 2026-05-03 21:17 | -33.94391 | -59.31951 | 29480 ft | 417 kts | 303° |
| 2026-05-03 21:17 | -33.91934 | -59.35486 | 29962 ft | 420 kts | 303° |
| 2026-05-03 21:17 | -33.90322 | -59.37803 | 30250 ft | 421 kts | 303° |
| 2026-05-03 21:18 | -33.88436 | -59.40508 | 30544 ft | 423 kts | 303° |
| 2026-05-03 21:18 | -33.86539 | -59.43226 | 30796 ft | 426 kts | 303° |
| 2026-05-03 21:18 | -33.84625 | -59.45971 | 31067 ft | 427 kts | 303° |
| 2026-05-03 21:18 | -33.83130 | -59.48118 | 31285 ft | 429 kts | 303° |
| 2026-05-03 21:19 | -33.81204 | -59.50877 | 31550 ft | 431 kts | 303° |
| 2026-05-03 21:19 | -33.79273 | -59.53636 | 31916 ft | 430 kts | 303° |
| 2026-05-03 21:19 | -33.78339 | -59.54965 | 32113 ft | 429 kts | 303° |
| 2026-05-03 21:19 | -33.76434 | -59.57657 | 32507 ft | 428 kts | 303° |
| 2026-05-03 21:20 | -33.74518 | -59.60377 | 32879 ft | 427 kts | 303° |
| 2026-05-03 21:20 | -33.72606 | -59.63105 | 33297 ft | 425 kts | 302° |
| 2026-05-03 21:20 | -33.70706 | -59.65826 | 33681 ft | 423 kts | 302° |
| 2026-05-03 21:20 | -33.68818 | -59.68529 | 34004 ft | 424 kts | 302° |
| 2026-05-03 21:21 | -33.65120 | -59.73777 | 34071 ft | 411 kts | 302° |
| 2026-05-03 21:21 | -33.61443 | -59.78979 | 34074 ft | 408 kts | 302° |
| 2026-05-03 21:22 | -33.57804 | -59.84134 | 34067 ft | 407 kts | 302° |
| 2026-05-03 21:22 | -33.54139 | -59.89315 | 34051 ft | 407 kts | 302° |
| 2026-05-03 21:23 | -33.50476 | -59.94491 | 34066 ft | 407 kts | 302° |
| 2026-05-03 21:23 | -33.47193 | -59.99130 | 34065 ft | 407 kts | 302° |
| 2026-05-03 21:24 | -33.43767 | -60.03949 | 34066 ft | 407 kts | 302° |
| 2026-05-03 21:24 | -33.40098 | -60.09107 | 34051 ft | 406 kts | 302° |
| 2026-05-03 21:25 | -33.36414 | -60.14287 | 34042 ft | 406 kts | 302° |
| 2026-05-03 21:25 | -33.32764 | -60.19399 | 34031 ft | 406 kts | 302° |
| 2026-05-03 21:26 | -33.29143 | -60.24469 | 34036 ft | 406 kts | 302° |
| 2026-05-03 21:26 | -33.25474 | -60.29597 | 34037 ft | 406 kts | 302° |
| 2026-05-03 21:27 | -33.21811 | -60.34710 | 34040 ft | 406 kts | 302° |
| 2026-05-03 21:27 | -33.18915 | -60.38745 | 34024 ft | 406 kts | 302° |
| 2026-05-03 21:28 | -33.15233 | -60.43870 | 34025 ft | 406 kts | 302° |
| 2026-05-03 21:28 | -33.11683 | -60.48806 | 34029 ft | 406 kts | 303° |
| 2026-05-03 21:29 | -33.07999 | -60.53921 | 34033 ft | 406 kts | 302° |
| 2026-05-03 21:29 | -33.04338 | -60.59007 | 34042 ft | 406 kts | 302° |
| 2026-05-03 21:30 | -33.00680 | -60.64081 | 34031 ft | 406 kts | 302° |
| 2026-05-03 21:30 | -32.96990 | -60.69189 | 34037 ft | 406 kts | 302° |
| 2026-05-03 21:31 | -32.93292 | -60.74290 | 34042 ft | 407 kts | 303° |
| 2026-05-03 21:31 | -32.90053 | -60.79047 | 34041 ft | 398 kts | 294° |
| 2026-05-03 21:32 | -32.87260 | -60.84704 | 34047 ft | 396 kts | 293° |
| 2026-05-03 21:32 | -32.84504 | -60.90310 | 34045 ft | 396 kts | 293° |
| 2026-05-03 21:33 | -32.81708 | -60.95960 | 34033 ft | 396 kts | 293° |
| 2026-05-03 21:33 | -32.78982 | -61.01455 | 34030 ft | 396 kts | 293° |
| 2026-05-03 21:34 | -32.76239 | -61.06977 | 34022 ft | 395 kts | 293° |
| 2026-05-03 21:34 | -32.73441 | -61.12606 | 34022 ft | 395 kts | 293° |
| 2026-05-03 21:35 | -32.70647 | -61.18225 | 34009 ft | 395 kts | 293° |
| 2026-05-03 21:35 | -32.67846 | -61.23843 | 34013 ft | 395 kts | 293° |
| 2026-05-03 21:36 | -32.65572 | -61.28407 | 34013 ft | 395 kts | 293° |
| 2026-05-03 21:36 | -32.62761 | -61.34040 | 34019 ft | 395 kts | 294° |
| 2026-05-03 21:37 | -32.59954 | -61.39639 | 34020 ft | 395 kts | 294° |
| 2026-05-03 21:37 | -32.57165 | -61.45203 | 34020 ft | 395 kts | 294° |
| 2026-05-03 21:38 | -32.54357 | -61.50801 | 34015 ft | 395 kts | 294° |
| 2026-05-03 21:38 | -32.51538 | -61.56395 | 34022 ft | 395 kts | 294° |
| 2026-05-03 21:39 | -32.48734 | -61.61968 | 34022 ft | 395 kts | 294° |
| 2026-05-03 21:39 | -32.45914 | -61.67564 | 34026 ft | 395 kts | 294° |
| 2026-05-03 21:40 | -32.43090 | -61.73149 | 34026 ft | 395 kts | 294° |
| 2026-05-03 21:40 | -32.40670 | -61.77936 | 34028 ft | 395 kts | 294° |
| 2026-05-03 21:41 | -32.37925 | -61.83360 | 34004 ft | 395 kts | 294° |
| 2026-05-03 21:41 | -32.35098 | -61.88933 | 34011 ft | 395 kts | 294° |
| 2026-05-03 21:42 | -32.32322 | -61.94410 | 34013 ft | 394 kts | 294° |
| 2026-05-03 21:42 | -32.29619 | -61.99729 | 34020 ft | 394 kts | 294° |
| 2026-05-03 21:43 | -32.26836 | -62.05202 | 34021 ft | 393 kts | 294° |
| 2026-05-03 21:43 | -32.24019 | -62.10740 | 34022 ft | 393 kts | 294° |
| 2026-05-03 21:44 | -32.21196 | -62.16267 | 34003 ft | 393 kts | 294° |
| 2026-05-03 21:44 | -32.19047 | -62.20473 | 34010 ft | 393 kts | 294° |
| 2026-05-03 21:45 | -32.16244 | -62.25945 | 34012 ft | 392 kts | 294° |
| 2026-05-03 21:45 | -32.13389 | -62.31508 | 34008 ft | 392 kts | 294° |
| 2026-05-03 21:46 | -32.10591 | -62.36949 | 34013 ft | 391 kts | 294° |
| 2026-05-03 21:46 | -32.07809 | -62.42364 | 34009 ft | 391 kts | 294° |
| 2026-05-03 21:47 | -32.04988 | -62.47865 | 34014 ft | 396 kts | 294° |
| 2026-05-03 21:47 | -32.03638 | -62.50503 | 33414 ft | 403 kts | 294° |
| 2026-05-03 21:47 | -32.02187 | -62.53328 | 32683 ft | 403 kts | 295° |
| 2026-05-03 21:48 | -32.00739 | -62.56132 | 32218 ft | 397 kts | 295° |
| 2026-05-03 21:48 | -31.99307 | -62.58894 | 31731 ft | 392 kts | 295° |
| 2026-05-03 21:48 | -31.97886 | -62.61627 | 31270 ft | 387 kts | 295° |
| 2026-05-03 21:48 | -31.96517 | -62.64257 | 30822 ft | 383 kts | 295° |
| 2026-05-03 21:49 | -31.95441 | -62.66329 | 30467 ft | 380 kts | 295° |
| 2026-05-03 21:49 | -31.94101 | -62.68907 | 30027 ft | 376 kts | 296° |
| 2026-05-03 21:49 | -31.92388 | -62.71260 | 29522 ft | 386 kts | 313° |
| 2026-05-03 21:49 | -31.90040 | -62.72882 | 28840 ft | 403 kts | 332° |
| 2026-05-03 21:50 | -31.87265 | -62.73723 | 28038 ft | 415 kts | 341° |
| 2026-05-03 21:50 | -31.84443 | -62.74470 | 27260 ft | 412 kts | 335° |
| 2026-05-03 21:50 | -31.81844 | -62.75567 | 26547 ft | 411 kts | 332° |
| 2026-05-03 21:50 | -31.79163 | -62.76776 | 25812 ft | 412 kts | 332° |
| 2026-05-03 21:51 | -31.76478 | -62.78002 | 25104 ft | 413 kts | 332° |
| 2026-05-03 21:51 | -31.73799 | -62.79238 | 24407 ft | 414 kts | 332° |
| 2026-05-03 21:51 | -31.71121 | -62.80483 | 23733 ft | 414 kts | 332° |
| 2026-05-03 21:51 | -31.68445 | -62.81738 | 22966 ft | 414 kts | 332° |
| 2026-05-03 21:52 | -31.65793 | -62.83060 | 22168 ft | 410 kts | 326° |
| 2026-05-03 21:52 | -31.63456 | -62.84918 | 21413 ft | 403 kts | 317° |
| 2026-05-03 21:52 | -31.61240 | -62.86919 | 20663 ft | 403 kts | 317° |
| 2026-05-03 21:52 | -31.59046 | -62.88924 | 19802 ft | 393 kts | 317° |
| 2026-05-03 21:53 | -31.56928 | -62.90871 | 19010 ft | 383 kts | 317° |
| 2026-05-03 21:53 | -31.56230 | -62.91515 | 18760 ft | 379 kts | 317° |
| 2026-05-03 21:53 | -31.54495 | -62.93178 | 18047 ft | 370 kts | 316° |
| 2026-05-03 21:53 | -31.52510 | -62.95041 | 17205 ft | 363 kts | 317° |
| 2026-05-03 21:54 | -31.50772 | -62.96685 | 16498 ft | 356 kts | 317° |
| 2026-05-03 21:54 | -31.48904 | -62.98476 | 15726 ft | 350 kts | 317° |
| 2026-05-03 21:54 | -31.47067 | -63.00266 | 14979 ft | 345 kts | 317° |
| 2026-05-03 21:54 | -31.45411 | -63.01903 | 14295 ft | 340 kts | 317° |
| 2026-05-03 21:55 | -31.43683 | -63.03627 | 13561 ft | 336 kts | 317° |
| 2026-05-03 21:55 | -31.41947 | -63.05379 | 12770 ft | 333 kts | 317° |
| 2026-05-03 21:55 | -31.40260 | -63.07091 | 12224 ft | 322 kts | 317° |
| 2026-05-03 21:55 | -31.38576 | -63.08802 | 12059 ft | 306 kts | 317° |
| 2026-05-03 21:56 | -31.36984 | -63.10425 | 12014 ft | 302 kts | 317° |
| 2026-05-03 21:56 | -31.35418 | -63.12022 | 12024 ft | 302 kts | 317° |
| 2026-05-03 21:56 | -31.33816 | -63.13647 | 12031 ft | 302 kts | 317° |
| 2026-05-03 21:56 | -31.32218 | -63.15256 | 12027 ft | 302 kts | 317° |
| 2026-05-03 21:57 | -31.30629 | -63.16860 | 12021 ft | 301 kts | 317° |
| 2026-05-03 21:57 | -31.29052 | -63.18453 | 12027 ft | 301 kts | 317° |
| 2026-05-03 21:57 | -31.27608 | -63.19906 | 12027 ft | 301 kts | 316° |
| 2026-05-03 21:58 | -31.25261 | -63.23305 | 12023 ft | 294 kts | 285° |
| 2026-05-03 21:58 | -31.25081 | -63.25636 | 12023 ft | 293 kts | 261° |
| 2026-05-03 21:58 | -31.25798 | -63.27846 | 12025 ft | 294 kts | 236° |
| 2026-05-03 21:58 | -31.27059 | -63.29315 | 12028 ft | 297 kts | 214° |
| 2026-05-03 21:59 | -31.29018 | -63.30214 | 12023 ft | 302 kts | 194° |
| 2026-05-03 21:59 | -31.29718 | -63.30380 | 12022 ft | 303 kts | 193° |
| 2026-05-03 21:59 | -31.32800 | -63.30988 | 12023 ft | 304 kts | 192° |
| 2026-05-03 21:59 | -31.33941 | -63.31205 | 12020 ft | 303 kts | 192° |
| 2026-05-03 22:00 | -31.36032 | -63.31603 | 12021 ft | 304 kts | 192° |
| 2026-05-03 22:00 | -31.38046 | -63.31989 | 12025 ft | 304 kts | 192° |
| 2026-05-03 22:00 | -31.40113 | -63.32387 | 12026 ft | 304 kts | 192° |
| 2026-05-03 22:00 | -31.42058 | -63.32747 | 12026 ft | 303 kts | 192° |
| 2026-05-03 22:01 | -31.44120 | -63.33131 | 12025 ft | 304 kts | 192° |
| 2026-05-03 22:01 | -31.45617 | -63.33412 | 12023 ft | 304 kts | 192° |
| 2026-05-03 22:01 | -31.47573 | -63.33776 | 12025 ft | 304 kts | 192° |
| 2026-05-03 22:01 | -31.49659 | -63.34167 | 12027 ft | 304 kts | 192° |
| 2026-05-03 22:02 | -31.51719 | -63.34552 | 12023 ft | 303 kts | 192° |
| 2026-05-03 22:02 | -31.53648 | -63.34911 | 12024 ft | 304 kts | 192° |
| 2026-05-03 22:02 | -31.55742 | -63.35310 | 12029 ft | 305 kts | 192° |
| 2026-05-03 22:02 | -31.57803 | -63.35753 | 12021 ft | 304 kts | 198° |
| 2026-05-03 22:03 | -31.59674 | -63.36883 | 12021 ft | 297 kts | 224° |
| 2026-05-03 22:03 | -31.60886 | -63.38769 | 12014 ft | 292 kts | 248° |
| 2026-05-03 22:03 | -31.61286 | -63.41101 | 12022 ft | 294 kts | 269° |
| 2026-05-03 22:03 | -31.61251 | -63.43483 | 12021 ft | 294 kts | 272° |
| 2026-05-03 22:04 | -31.61165 | -63.45725 | 12020 ft | 292 kts | 272° |
| 2026-05-03 22:04 | -31.61079 | -63.47737 | 12016 ft | 292 kts | 272° |
| 2026-05-03 22:04 | -31.60969 | -63.50141 | 12014 ft | 290 kts | 272° |
| 2026-05-03 22:04 | -31.60871 | -63.52314 | 12016 ft | 291 kts | 272° |
| 2026-05-03 22:05 | -31.60763 | -63.54700 | 12015 ft | 293 kts | 272° |
| 2026-05-03 22:05 | -31.60684 | -63.57097 | 12015 ft | 290 kts | 266° |
| 2026-05-03 22:05 | -31.61114 | -63.59124 | 12015 ft | 292 kts | 244° |
| 2026-05-03 22:05 | -31.62353 | -63.61007 | 12013 ft | 296 kts | 225° |
| 2026-05-03 22:06 | -31.63893 | -63.62612 | 12009 ft | 295 kts | 223° |
| 2026-05-03 22:06 | -31.65449 | -63.64173 | 12009 ft | 296 kts | 223° |
| 2026-05-03 22:06 | -31.66932 | -63.65654 | 12005 ft | 295 kts | 223° |
| 2026-05-03 22:06 | -31.68497 | -63.67196 | 12007 ft | 293 kts | 222° |
| 2026-05-03 22:07 | -31.70056 | -63.68742 | 12005 ft | 295 kts | 222° |
| 2026-05-03 22:07 | -31.71051 | -63.69739 | 12004 ft | 296 kts | 223° |
| 2026-05-03 22:07 | -31.72564 | -63.71257 | 12006 ft | 295 kts | 223° |
| 2026-05-03 22:07 | -31.74129 | -63.72828 | 12006 ft | 297 kts | 223° |
| 2026-05-03 22:08 | -31.75697 | -63.74411 | 12003 ft | 296 kts | 222° |
| 2026-05-03 22:08 | -31.77234 | -63.75961 | 12003 ft | 293 kts | 223° |
| 2026-05-03 22:08 | -31.78777 | -63.77517 | 11998 ft | 294 kts | 223° |
| 2026-05-03 22:08 | -31.80299 | -63.79052 | 11998 ft | 293 kts | 222° |
| 2026-05-03 22:09 | -31.81841 | -63.80603 | 12000 ft | 291 kts | 223° |
| 2026-05-03 22:09 | -31.83381 | -63.82149 | 11999 ft | 293 kts | 223° |
| 2026-05-03 22:09 | -31.84926 | -63.83720 | 12001 ft | 293 kts | 223° |
| 2026-05-03 22:10 | -31.87989 | -63.86837 | 11994 ft | 295 kts | 223° |
| 2026-05-03 22:10 | -31.89538 | -63.88429 | 11993 ft | 294 kts | 222° |
| 2026-05-03 22:10 | -31.90867 | -63.89780 | 11996 ft | 292 kts | 223° |
| 2026-05-03 22:10 | -31.92241 | -63.91200 | 11991 ft | 294 kts | 223° |
| 2026-05-03 22:11 | -31.93796 | -63.92795 | 11992 ft | 293 kts | 223° |
| 2026-05-03 22:11 | -31.95336 | -63.94361 | 11993 ft | 293 kts | 223° |
| 2026-05-03 22:11 | -31.96573 | -63.95955 | 11986 ft | 291 kts | 240° |
| 2026-05-03 22:11 | -31.97200 | -63.98011 | 11994 ft | 289 kts | 263° |
| 2026-05-03 22:12 | -31.97006 | -64.00356 | 11986 ft | 293 kts | 287° |
| 2026-05-03 22:12 | -31.96219 | -64.02585 | 11989 ft | 296 kts | 292° |
| 2026-05-03 22:12 | -31.95360 | -64.04796 | 11988 ft | 297 kts | 293° |
| 2026-05-03 22:12 | -31.94489 | -64.07015 | 11985 ft | 296 kts | 292° |
| 2026-05-03 22:13 | -31.93659 | -64.09094 | 11994 ft | 293 kts | 292° |
| 2026-05-03 22:13 | -31.92935 | -64.10879 | 11993 ft | 294 kts | 293° |
| 2026-05-03 22:13 | -31.92067 | -64.13066 | 11989 ft | 295 kts | 292° |
| 2026-05-03 22:13 | -31.91210 | -64.15216 | 11991 ft | 294 kts | 292° |
| 2026-05-03 22:14 | -31.90450 | -64.17096 | 11990 ft | 291 kts | 293° |
| 2026-05-03 22:14 | -31.89565 | -64.19264 | 11987 ft | 291 kts | 293° |
| 2026-05-03 22:14 | -31.88698 | -64.21384 | 11987 ft | 291 kts | 293° |
| 2026-05-03 22:14 | -31.87813 | -64.23574 | 11987 ft | 292 kts | 293° |
| 2026-05-03 22:15 | -31.86954 | -64.25721 | 11987 ft | 294 kts | 293° |
| 2026-05-03 22:15 | -31.86081 | -64.27897 | 11987 ft | 293 kts | 293° |
| 2026-05-03 22:15 | -31.85261 | -64.29916 | 11990 ft | 292 kts | 294° |
| 2026-05-03 22:15 | -31.84429 | -64.31989 | 11793 ft | 296 kts | 293° |
| 2026-05-03 22:16 | -31.83566 | -64.34174 | 11435 ft | 295 kts | 293° |
| 2026-05-03 22:16 | -31.82701 | -64.36353 | 11077 ft | 293 kts | 293° |
| 2026-05-03 22:16 | -31.82155 | -64.37738 | 10852 ft | 293 kts | 293° |
| 2026-05-03 22:16 | -31.81483 | -64.39463 | 10577 ft | 293 kts | 293° |
| 2026-05-03 22:17 | -31.80637 | -64.41636 | 10228 ft | 291 kts | 293° |
| 2026-05-03 22:17 | -31.79686 | -64.43736 | 9882 ft | 292 kts | 306° |
| 2026-05-03 22:17 | -31.78644 | -64.44966 | 9617 ft | 292 kts | 322° |
| 2026-05-03 22:17 | -31.76821 | -64.46003 | 9232 ft | 294 kts | 344° |
| 2026-05-03 22:18 | -31.74777 | -64.46046 | 8856 ft | 297 kts | 10° |
| 2026-05-03 22:18 | -31.72908 | -64.45035 | 8486 ft | 300 kts | 36° |
| 2026-05-03 22:18 | -31.71426 | -64.43322 | 8111 ft | 299 kts | 44° |
| 2026-05-03 22:18 | -31.70500 | -64.42123 | 7896 ft | 297 kts | 45° |
| 2026-05-03 22:19 | -31.69420 | -64.40696 | 7598 ft | 295 kts | 47° |
| 2026-05-03 22:19 | -31.68136 | -64.39032 | 7266 ft | 292 kts | 45° |
| 2026-05-03 22:19 | -31.66818 | -64.37238 | 7011 ft | 286 kts | 46° |
| 2026-05-03 22:19 | -31.65815 | -64.35836 | 6988 ft | 284 kts | 46° |
| 2026-05-03 22:20 | -31.64553 | -64.34065 | 6992 ft | 283 kts | 46° |
| 2026-05-03 22:20 | -31.63290 | -64.32287 | 6996 ft | 282 kts | 45° |
| 2026-05-03 22:20 | -31.62456 | -64.31118 | 6996 ft | 283 kts | 45° |
| 2026-05-03 22:20 | -31.61193 | -64.29392 | 6996 ft | 283 kts | 45° |
| 2026-05-03 22:21 | -31.59922 | -64.27635 | 6999 ft | 283 kts | 45° |
| 2026-05-03 22:21 | -31.58651 | -64.25865 | 7001 ft | 283 kts | 45° |
| 2026-05-03 22:21 | -31.57398 | -64.24076 | 7000 ft | 285 kts | 51° |
| 2026-05-03 22:21 | -31.56584 | -64.22096 | 6929 ft | 292 kts | 66° |
| 2026-05-03 22:22 | -31.56052 | -64.20393 | 6653 ft | 290 kts | 67° |
| 2026-05-03 22:22 | -31.55414 | -64.18161 | 6298 ft | 288 kts | 68° |
| 2026-05-03 22:22 | -31.54814 | -64.15958 | 6022 ft | 284 kts | 68° |
| 2026-05-03 22:22 | -31.54222 | -64.13754 | 6003 ft | 284 kts | 68° |
| 2026-05-03 22:23 | -31.53619 | -64.11515 | 6005 ft | 285 kts | 68° |
| 2026-05-03 22:23 | -31.53075 | -64.09488 | 6011 ft | 286 kts | 68° |
| 2026-05-03 22:23 | -31.52473 | -64.07301 | 6011 ft | 285 kts | 68° |
| 2026-05-03 22:23 | -31.51752 | -64.05166 | 6008 ft | 279 kts | 53° |
| 2026-05-03 22:24 | -31.50501 | -64.03513 | 6005 ft | 266 kts | 32° |
| 2026-05-03 22:24 | -31.49122 | -64.02654 | 6005 ft | 252 kts | 14° |
| 2026-05-03 22:24 | -31.47916 | -64.02378 | 6009 ft | 234 kts | 0° |
| 2026-05-03 22:24 | -31.46359 | -64.02551 | 6009 ft | 221 kts | 343° |
| 2026-05-03 22:25 | -31.44965 | -64.03272 | 6008 ft | 220 kts | 327° |
| 2026-05-03 22:25 | -31.43837 | -64.04480 | 6008 ft | 222 kts | 307° |
| 2026-05-03 22:25 | -31.43368 | -64.06039 | 6018 ft | 229 kts | 276° |
| 2026-05-03 22:25 | -31.43394 | -64.07927 | 5996 ft | 232 kts | 274° |
| 2026-05-03 22:26 | -31.43406 | -64.09821 | 5766 ft | 228 kts | 274° |
| 2026-05-03 22:26 | -31.43434 | -64.11622 | 5765 ft | 218 kts | 274° |
| 2026-05-03 22:26 | -31.43457 | -64.13381 | 5861 ft | 215 kts | 274° |
| 2026-05-03 22:26 | -31.43416 | -64.15123 | 5968 ft | 212 kts | 285° |
| 2026-05-03 22:27 | -31.43006 | -64.16362 | 5994 ft | 198 kts | 306° |
| 2026-05-03 22:27 | -31.42141 | -64.17390 | 6004 ft | 186 kts | 327° |
| 2026-05-03 22:27 | -31.41035 | -64.18156 | 6003 ft | 184 kts | 329° |
| 2026-05-03 22:27 | -31.39943 | -64.18910 | 6014 ft | 177 kts | 329° |
| 2026-05-03 22:28 | -31.39091 | -64.19500 | 6027 ft | 158 kts | 329° |
| 2026-05-03 22:28 | -31.38210 | -64.20113 | 5962 ft | 146 kts | 329° |
| 2026-05-03 22:28 | -31.37307 | -64.20639 | 5579 ft | 146 kts | 342° |
| 2026-05-03 22:28 | -31.36285 | -64.20742 | 5195 ft | 148 kts | 355° |
| 2026-05-03 22:29 | -31.35254 | -64.20755 | 4819 ft | 148 kts | 356° |
| 2026-05-03 22:29 | -31.34310 | -64.20770 | 4445 ft | 146 kts | 357° |
| 2026-05-03 22:29 | -31.33299 | -64.20788 | 4072 ft | 144 kts | 359° |
| 2026-05-03 22:29 | -31.32344 | -64.20807 | 4111 ft | 135 kts | 358° |
| 2026-05-03 22:30 | -31.31816 | -64.20848 | 4201 ft | 132 kts | 348° |
| 2026-05-03 22:30 | -31.31044 | -64.21194 | 4259 ft | 129 kts | 335° |
| 2026-05-03 22:30 | -31.30200 | -64.21543 | 4373 ft | 128 kts | 345° |
| 2026-05-03 22:30 | -31.29345 | -64.21751 | 4552 ft | 127 kts | 351° |
| 2026-05-03 22:31 | -31.28452 | -64.21805 | 4811 ft | 129 kts | 359° |
| 2026-05-03 22:31 | -31.27554 | -64.21681 | 5050 ft | 130 kts | 3° |
| 2026-05-03 22:31 | -31.26660 | -64.21490 | 5294 ft | 132 kts | 8° |
| 2026-05-03 22:31 | -31.25776 | -64.21039 | 5518 ft | 149 kts | 31° |
| 2026-05-03 22:32 | -31.25161 | -64.20045 | 5750 ft | 161 kts | 69° |
| 2026-05-03 22:32 | -31.25082 | -64.18828 | 6008 ft | 168 kts | 83° |
| 2026-05-03 22:32 | -31.25082 | -64.17843 | 6187 ft | 169 kts | 83° |
| 2026-05-03 22:32 | -31.25088 | -64.16464 | 6436 ft | 171 kts | 84° |
| 2026-05-03 22:33 | -31.25090 | -64.15077 | 6667 ft | 172 kts | 84° |
| 2026-05-03 22:33 | -31.25087 | -64.13679 | 6900 ft | 172 kts | 84° |
| 2026-05-03 22:33 | -31.25084 | -64.12712 | 7061 ft | 172 kts | 84° |
| 2026-05-03 22:33 | -31.25077 | -64.11388 | 7282 ft | 173 kts | 84° |
| 2026-05-03 22:34 | -31.25071 | -64.10026 | 7514 ft | 174 kts | 85° |
| 2026-05-03 22:34 | -31.25066 | -64.09026 | 7682 ft | 175 kts | 86° |
| 2026-05-03 22:34 | -31.25059 | -64.07603 | 7912 ft | 177 kts | 85° |
| 2026-05-03 22:34 | -31.25047 | -64.06152 | 7998 ft | 178 kts | 86° |
| 2026-05-03 22:35 | -31.24920 | -64.04832 | 8001 ft | 174 kts | 69° |
| 2026-05-03 22:35 | -31.24472 | -64.03550 | 8009 ft | 168 kts | 56° |
| 2026-05-03 22:35 | -31.23937 | -64.02319 | 8010 ft | 168 kts | 57° |
| 2026-05-03 22:35 | -31.23414 | -64.01098 | 8012 ft | 168 kts | 58° |
| 2026-05-03 22:36 | -31.23047 | -64.00242 | 8011 ft | 168 kts | 58° |
| 2026-05-03 22:36 | -31.22547 | -63.99074 | 8012 ft | 168 kts | 57° |
| 2026-05-03 22:36 | -31.22009 | -63.97821 | 8017 ft | 168 kts | 58° |
| 2026-05-03 22:36 | -31.21489 | -63.96611 | 8018 ft | 168 kts | 57° |
| 2026-05-03 22:37 | -31.21001 | -63.95377 | 8011 ft | 171 kts | 68° |
| 2026-05-03 22:37 | -31.21079 | -63.93970 | 8005 ft | 178 kts | 115° |
| 2026-05-03 22:37 | -31.21783 | -63.92758 | 8035 ft | 183 kts | 129° |
| 2026-05-03 22:37 | -31.22609 | -63.91663 | 8020 ft | 182 kts | 132° |
| 2026-05-03 22:38 | -31.23478 | -63.90563 | 7998 ft | 182 kts | 132° |
| 2026-05-03 22:38 | -31.24148 | -63.89901 | 7802 ft | 186 kts | 155° |
| 2026-05-03 22:38 | -31.25236 | -63.89387 | 7597 ft | 186 kts | 165° |
| 2026-05-03 22:38 | -31.26490 | -63.88959 | 7340 ft | 189 kts | 167° |
| 2026-05-03 22:39 | -31.27772 | -63.88560 | 7093 ft | 192 kts | 167° |
| 2026-05-03 22:39 | -31.28962 | -63.88199 | 7011 ft | 184 kts | 167° |
| 2026-05-03 22:39 | -31.30198 | -63.87826 | 7016 ft | 182 kts | 167° |
| 2026-05-03 22:39 | -31.31409 | -63.87461 | 7018 ft | 182 kts | 167° |
| 2026-05-03 22:40 | -31.32636 | -63.87092 | 7017 ft | 182 kts | 167° |
| 2026-05-03 22:40 | -31.33880 | -63.86718 | 7017 ft | 182 kts | 167° |
| 2026-05-03 22:40 | -31.34671 | -63.86480 | 7020 ft | 182 kts | 167° |
| 2026-05-03 22:40 | -31.35620 | -63.86194 | 7022 ft | 182 kts | 167° |
| 2026-05-03 22:41 | -31.36836 | -63.85829 | 7025 ft | 182 kts | 167° |
| 2026-05-03 22:41 | -31.38082 | -63.85455 | 6857 ft | 187 kts | 167° |
| 2026-05-03 22:41 | -31.39361 | -63.85229 | 6609 ft | 186 kts | 191° |
| 2026-05-03 22:41 | -31.40536 | -63.85739 | 6371 ft | 177 kts | 226° |
| 2026-05-03 22:42 | -31.41256 | -63.86833 | 6126 ft | 166 kts | 258° |
| 2026-05-03 22:42 | -31.41482 | -63.88125 | 5857 ft | 163 kts | 270° |
| 2026-05-03 22:42 | -31.41641 | -63.89454 | 5560 ft | 167 kts | 270° |
| 2026-05-03 22:42 | -31.41804 | -63.90810 | 5265 ft | 169 kts | 270° |
| 2026-05-03 22:43 | -31.41968 | -63.92174 | 5046 ft | 166 kts | 271° |
| 2026-05-03 22:43 | -31.42130 | -63.93493 | 4862 ft | 158 kts | 271° |
| 2026-05-03 22:43 | -31.42218 | -63.94193 | 4716 ft | 152 kts | 271° |
| 2026-05-03 22:43 | -31.42335 | -63.95130 | 4515 ft | 147 kts | 272° |
| 2026-05-03 22:44 | -31.42479 | -63.96305 | 4254 ft | 143 kts | 273° |
| 2026-05-03 22:44 | -31.42617 | -63.97449 | 4056 ft | 140 kts | 273° |
| 2026-05-03 22:44 | -31.42749 | -63.98573 | 4020 ft | 140 kts | 274° |
| 2026-05-03 22:44 | -31.42881 | -63.99689 | 4015 ft | 140 kts | 273° |
| 2026-05-03 22:45 | -31.43015 | -64.00830 | 4016 ft | 141 kts | 273° |
| 2026-05-03 22:45 | -31.43151 | -64.01970 | 4011 ft | 142 kts | 273° |
| 2026-05-03 22:45 | -31.43286 | -64.03111 | 4018 ft | 141 kts | 274° |
| 2026-05-03 22:45 | -31.43130 | -64.04159 | 4007 ft | 125 kts | 308° |
| 2026-05-03 22:46 | -31.42683 | -64.05047 | 4020 ft | 126 kts | 309° |
| 2026-05-03 22:46 | -31.42174 | -64.05911 | 4016 ft | 132 kts | 304° |
| 2026-05-03 22:46 | -31.42031 | -64.06581 | 4016 ft | 141 kts | 275° |
| 2026-05-03 22:46 | -31.42283 | -64.07719 | 4008 ft | 145 kts | 264° |
| 2026-05-03 22:47 | -31.42469 | -64.08869 | 4013 ft | 143 kts | 268° |
| 2026-05-03 22:47 | -31.42621 | -64.10016 | 3963 ft | 143 kts | 268° |
| 2026-05-03 22:47 | -31.42775 | -64.11168 | 3910 ft | 144 kts | 268° |
| 2026-05-03 22:47 | -31.42936 | -64.12342 | 3851 ft | 144 kts | 268° |
| 2026-05-03 22:48 | -31.43012 | -64.13121 | 3615 ft | 148 kts | 276° |
| 2026-05-03 22:48 | -31.42907 | -64.14571 | 3086 ft | 152 kts | 289° |
| 2026-05-03 22:48 | -31.42600 | -64.15715 | 2993 ft | 141 kts | 301° |
| 2026-05-03 22:48 | -31.42159 | -64.16700 | 2967 ft | 136 kts | 311° |
| 2026-05-03 22:49 | -31.41587 | -64.17559 | 2939 ft | 132 kts | 321° |
| 2026-05-03 22:49 | -31.40911 | -64.18287 | 2805 ft | 131 kts | 328° |
| 2026-05-03 22:49 | -31.40416 | -64.18721 | 2691 ft | 132 kts | 331° |
| 2026-05-03 22:49 | -31.39589 | -64.19317 | 2493 ft | 131 kts | 339° |
| 2026-05-03 22:50 | -31.39065 | -64.19617 | 2446 ft | 130 kts | 342° |
| 2026-05-03 22:50 | -31.38228 | -64.20030 | 2408 ft | 131 kts | 344° |
| 2026-05-03 22:50 | -31.37135 | -64.20418 | 2251 ft | 129 kts | 351° |
| 2026-05-03 22:50 | -31.36245 | -64.20576 | 2132 ft | 130 kts | 357° |
| 2026-05-03 22:51 | -31.35344 | -64.20693 | 2029 ft | 130 kts | 357° |
| 2026-05-03 22:51 | -31.34501 | -64.20777 | 1852 ft | 129 kts | 358° |
| 2026-05-03 22:51 | -31.33891 | -64.20788 | 1761 ft | 129 kts | 359° |
| 2026-05-03 22:51 | -31.33005 | -64.20798 | 1667 ft | 127 kts | 0° |
| 2026-05-03 22:52 | -31.32128 | -64.20819 | 1565 ft | 121 kts | 1° |
| 2026-05-03 22:52 | -31.31608 | -64.20827 | 1556 ft | 28 kts | 5° |
| 2026-05-03 22:52 | -31.31478 | -64.20869 | 1560 ft | 18 kts | 304° |
| 2026-05-03 22:52 | -31.31464 | -64.20942 | 1562 ft | 2 kts | 268° |
| 2026-05-03 22:53 | -31.31464 | -64.20943 | 1562 ft | 0 kts | 267° |
| 2026-05-03 22:53 | -31.31464 | -64.20944 | 1562 ft | 1 kts | 267° |
| 2026-05-03 22:53 | -31.31465 | -64.20957 | 1563 ft | 1 kts | 263° |
| 2026-05-03 22:54 | -31.31468 | -64.20983 | 1563 ft | 3 kts | 263° |
| 2026-05-03 22:54 | -31.31485 | -64.21038 | 1563 ft | 13 kts | 234° |
| 2026-05-03 22:54 | -31.31533 | -64.21073 | 1562 ft | 13 kts | 202° |
| 2026-05-03 22:54 | -31.31598 | -64.21098 | 1560 ft | 7 kts | 187° |
| 2026-05-03 22:55 | -31.31631 | -64.21102 | 1559 ft | 7 kts | 194° |
| 2026-05-03 22:55 | -31.31651 | -64.21133 | 1559 ft | 0 kts | 261° |
| 2026-05-03 22:55 | -31.31651 | -64.21140 | 1559 ft | 1 kts | 262° |
| 2026-05-03 22:55 | -31.31652 | -64.21154 | 1559 ft | 1 kts | 266° |
| 2026-05-03 22:56 | -31.31652 | -64.21156 | 1559 ft | 0 kts | 265° |
| 2026-05-03 22:56 | -31.31653 | -64.21160 | 1559 ft | 0 kts | 267° |
| 2026-05-03 22:56 | -31.31653 | -64.21161 | 1559 ft | 0 kts | 263° |
| 2026-05-03 22:57 | -31.31653 | -64.21162 | 1559 ft | 0 kts | 265° |